Time;durP1;ratioP1;P1;durP2;ratioP2;P2;SDS_P1;SDS_P2;PMS_P1;PMS_P2;Temp;Humidity;BMP_temperature;BMP_pressure;BME280_temperature;BME280_humidity;BME280_pressure;Samples;Min_cycle;Max_cycle;Signal;HPM_P1;HPM_P2
2022/08/19 00:00:05;;;;;;;4.57;1.52;;;;;;;;;;5110120;28;20043;-58
2022/08/19 00:02:30;;;;;;;8.73;2.80;;;;;;;;;;5109995;28;20515;-58
2022/08/19 00:04:55;;;;;;;2.28;1.40;;;;;;;;;;5110300;28;20094;-59
2022/08/19 00:07:21;;;;;;;3.60;0.85;;;;;;;;;;5110618;28;20043;-58
2022/08/19 00:09:46;;;;;;;3.35;1.67;;;;;;;;;;5109447;28;20092;-58
2022/08/19 00:12:12;;;;;;;3.30;1.20;;;;;;;;;;5110508;28;20494;-57
2022/08/19 00:14:37;;;;;;;3.33;1.17;;;;;;;;;;5108883;28;20047;-58
2022/08/19 00:17:04;;;;;;;3.70;1.38;;;;;;;;;;5108331;28;20444;-57
2022/08/19 00:19:30;;;;;;;1.85;1.17;;;;;;;;;;5108928;28;20143;-58
2022/08/19 00:21:55;;;;;;;1.42;1.23;;;;;;;;;;5110227;28;20156;-57
2022/08/19 00:24:22;;;;;;;4.47;1.55;;;;;;;;;;5108960;28;20142;-57
2022/08/19 00:26:47;;;;;;;5.85;1.75;;;;;;;;;;5109405;28;20051;-57
2022/08/19 00:29:14;;;;;;;2.70;1.58;;;;;;;;;;5110028;28;20058;-56
2022/08/19 00:31:41;;;;;;;1.70;0.90;;;;;;;;;;5108867;28;20077;-57
2022/08/19 00:34:07;;;;;;;3.47;1.00;;;;;;;;;;5109773;28;20048;-58
2022/08/19 00:36:32;;;;;;;3.67;1.95;;;;;;;;;;5110025;28;20657;-58
2022/08/19 00:38:59;;;;;;;3.30;1.20;;;;;;;;;;5109835;28;20076;-58
2022/08/19 00:41:25;;;;;;;1.83;0.73;;;;;;;;;;5107564;28;20077;-58
2022/08/19 00:44:04;;;;;;;25.73;3.90;;;;;;;;;;5108827;28;20521;-56
2022/08/19 00:46:32;;;;;;;10.52;2.22;;;;;;;;;;5110029;28;20044;-58
2022/08/19 00:48:57;;;;;;;3.45;1.23;;;;;;;;;;5110226;28;20047;-58
2022/08/19 00:51:26;;;;;;;2.45;1.85;;;;;;;;;;5104377;28;20044;-57
2022/08/19 00:53:52;;;;;;;3.22;1.13;;;;;;;;;;5106102;28;20170;-56
2022/08/19 00:56:17;;;;;;;4.03;1.20;;;;;;;;;;5108249;28;20513;-55
2022/08/19 00:58:43;;;;;;;3.92;0.80;;;;;;;;;;5109538;28;20522;-56
2022/08/19 01:01:08;;;;;;;0.73;0.63;;;;;;;;;;5109632;28;20448;-56
2022/08/19 01:03:34;;;;;;;2.88;0.70;;;;;;;;;;5108250;28;20054;-57
2022/08/19 01:05:59;;;;;;;10.18;0.68;;;;;;;;;;5109582;28;20410;-58
2022/08/19 01:08:25;;;;;;;3.22;1.02;;;;;;;;;;5108191;28;20096;-58
2022/08/19 01:10:59;;;;;;;12.73;2.03;;;;;;;;;;5110070;28;20051;-58
2022/08/19 01:13:30;;;;;;;2.28;1.27;;;;;;;;;;5109546;28;20047;-57
2022/08/19 01:15:57;;;;;;;9.18;2.08;;;;;;;;;;5106249;28;20720;-57
2022/08/19 01:18:23;;;;;;;4.28;1.48;;;;;;;;;;5108074;28;20478;-58
2022/08/19 01:20:48;;;;;;;4.68;1.77;;;;;;;;;;5108016;28;20048;-59
2022/08/19 01:23:14;;;;;;;6.85;1.15;;;;;;;;;;5109072;28;20050;-59
2022/08/19 01:25:50;;;;;;;3.40;0.85;;;;;;;;;;5105988;27;20039;-57
2022/08/19 01:28:20;;;;;;;3.83;1.00;;;;;;;;;;5107798;28;20511;-58
2022/08/19 01:30:46;;;;;;;2.65;1.45;;;;;;;;;;5108320;28;20570;-61
2022/08/19 01:33:11;;;;;;;1.00;0.50;;;;;;;;;;5108822;28;20127;-58
2022/08/19 01:35:37;;;;;;;2.80;0.75;;;;;;;;;;5106885;28;20483;-58
2022/08/19 01:38:07;;;;;;;5.03;1.17;;;;;;;;;;5108469;28;20435;-57
2022/08/19 01:40:33;;;;;;;4.95;1.00;;;;;;;;;;5107091;28;20055;-58
2022/08/19 01:42:59;;;;;;;3.70;1.30;;;;;;;;;;5107851;28;20047;-58
2022/08/19 01:45:25;;;;;;;2.53;0.82;;;;;;;;;;5107995;28;20039;-57
2022/08/19 01:47:51;;;;;;;3.67;0.93;;;;;;;;;;5106450;28;20043;-58
2022/08/19 01:50:17;;;;;;;1.83;1.10;;;;;;;;;;5107621;28;20674;-58
2022/08/19 01:52:43;;;;;;;5.53;1.45;;;;;;;;;;5107044;28;20047;-58
2022/08/19 01:55:11;;;;;;;4.93;1.00;;;;;;;;;;5106277;28;20064;-58
2022/08/19 01:57:37;;;;;;;1.10;0.70;;;;;;;;;;5106062;28;20032;-58
2022/08/19 02:00:07;;;;;;;2.83;1.08;;;;;;;;;;5108037;28;20039;-58
2022/08/19 02:02:32;;;;;;;2.00;1.05;;;;;;;;;;5108014;28;20171;-58
2022/08/19 02:04:58;;;;;;;9.50;1.50;;;;;;;;;;5107515;28;20179;-58
2022/08/19 02:07:23;;;;;;;3.47;1.88;;;;;;;;;;5106864;28;20487;-58
2022/08/19 02:09:49;;;;;;;4.68;0.80;;;;;;;;;;5106743;28;20043;-58
2022/08/19 02:12:14;;;;;;;3.30;0.85;;;;;;;;;;5107510;28;20108;-58
2022/08/19 02:14:40;;;;;;;1.15;0.88;;;;;;;;;;5105619;28;20074;-58
2022/08/19 02:17:05;;;;;;;6.18;2.20;;;;;;;;;;5106812;28;20431;-58
2022/08/19 02:19:32;;;;;;;5.90;1.20;;;;;;;;;;5107876;28;20121;-57
2022/08/19 02:21:58;;;;;;;3.33;1.20;;;;;;;;;;5106693;28;20039;-57
2022/08/19 02:24:23;;;;;;;2.40;0.95;;;;;;;;;;5106557;28;20055;-57
2022/08/19 02:26:49;;;;;;;1.48;0.70;;;;;;;;;;5105556;28;20612;-57
2022/08/19 02:29:14;;;;;;;4.03;1.40;;;;;;;;;;5107360;28;20134;-58
2022/08/19 02:31:39;;;;;;;2.15;1.00;;;;;;;;;;5106082;28;20054;-58
2022/08/19 02:34:05;;;;;;;3.20;1.58;;;;;;;;;;5107245;28;20036;-58
2022/08/19 02:36:30;;;;;;;3.58;1.08;;;;;;;;;;5107074;28;20047;-58
2022/08/19 02:38:55;;;;;;;1.17;0.60;;;;;;;;;;5106457;28;20035;-57
2022/08/19 02:41:31;;;;;;;0.82;0.75;;;;;;;;;;5106889;28;20046;-57
2022/08/19 02:43:57;;;;;;;9.93;2.33;;;;;;;;;;5104321;28;20596;-58
2022/08/19 02:46:28;;;;;;;2.50;1.13;;;;;;;;;;5106898;28;20055;-57
2022/08/19 02:48:53;;;;;;;;;;;;;;;;;;5089491;28;20039;-58
2022/08/19 02:51:21;;;;;;;2.45;0.88;;;;;;;;;;5106181;28;19926;-58
2022/08/19 02:53:47;;;;;;;2.25;1.17;;;;;;;;;;5104996;28;20082;-58
2022/08/19 02:56:12;;;;;;;2.05;0.95;;;;;;;;;;5106486;28;20136;-58
2022/08/19 02:58:38;;;;;;;5.07;1.23;;;;;;;;;;5105101;28;20046;-57
2022/08/19 03:01:03;;;;;;;3.58;0.77;;;;;;;;;;5106286;28;20039;-57
2022/08/19 03:03:29;;;;;;;1.33;0.95;;;;;;;;;;5106078;28;20082;-57
2022/08/19 03:06:13;;;;;;;1.58;0.55;;;;;;;;;;5104888;28;20893;-57
2022/08/19 03:08:40;;;;;;;10.52;1.02;;;;;;;;;;5104917;28;20047;-58
2022/08/19 03:11:05;;;;;;;3.20;1.10;;;;;;;;;;5106576;28;20039;-57
2022/08/19 03:13:31;;;;;;;3.33;0.90;;;;;;;;;;5105645;28;20062;-57
2022/08/19 03:15:56;;;;;;;3.50;0.85;;;;;;;;;;5105694;28;20141;-56
2022/08/19 03:18:22;;;;;;;3.53;1.52;;;;;;;;;;5105941;28;20057;-58
2022/08/19 03:20:49;;;;;;;1.38;0.70;;;;;;;;;;5106779;28;20126;-57
2022/08/19 03:23:15;;;;;;;7.85;2.05;;;;;;;;;;5105266;28;20039;-57
2022/08/19 03:25:43;;;;;;;1.13;0.73;;;;;;;;;;5105678;28;20036;-58
2022/08/19 03:28:09;;;;;;;13.40;1.95;;;;;;;;;;5102424;28;20076;-57
2022/08/19 03:30:34;;;;;;;5.03;1.65;;;;;;;;;;5105266;28;20058;-58
2022/08/19 03:32:59;;;;;;;2.17;1.35;;;;;;;;;;5109583;28;20044;-58
2022/08/19 03:35:25;;;;;;;3.72;0.98;;;;;;;;;;5110810;28;20063;-57
2022/08/19 03:37:50;;;;;;;4.47;1.38;;;;;;;;;;5110835;28;20049;-58
2022/08/19 03:40:16;;;;;;;4.35;1.27;;;;;;;;;;5111000;28;20066;-58
2022/08/19 03:42:42;;;;;;;10.20;1.17;;;;;;;;;;5110847;28;20212;-57
2022/08/19 03:45:07;;;;;;;3.03;0.63;;;;;;;;;;5110125;28;20395;-58
2022/08/19 03:47:33;;;;;;;8.48;1.52;;;;;;;;;;5109573;28;20071;-58
2022/08/19 03:49:58;;;;;;;5.40;1.60;;;;;;;;;;5111053;28;20050;-58
2022/08/19 03:52:23;;;;;;;10.55;1.48;;;;;;;;;;5109501;28;20542;-57
2022/08/19 03:54:49;;;;;;;1.63;0.90;;;;;;;;;;5110146;28;20056;-56
2022/08/19 03:57:14;;;;;;;2.55;1.42;;;;;;;;;;5109616;28;20039;-57
2022/08/19 03:59:39;;;;;;;2.80;1.17;;;;;;;;;;5109686;28;20036;-57
2022/08/19 04:02:08;;;;;;;4.80;2.38;;;;;;;;;;5110752;28;20046;-57
2022/08/19 04:04:34;;;;;;;1.20;0.70;;;;;;;;;;5107753;28;20061;-55
2022/08/19 04:06:59;;;;;;;3.63;2.13;;;;;;;;;;5108543;28;20620;-56
2022/08/19 04:09:25;;;;;;;4.13;1.70;;;;;;;;;;5109433;28;20624;-57
2022/08/19 04:11:54;;;;;;;3.03;1.30;;;;;;;;;;5109655;28;20044;-57
2022/08/19 04:14:21;;;;;;;5.22;1.52;;;;;;;;;;5108106;28;20047;-57
2022/08/19 04:16:47;;;;;;;1.63;0.95;;;;;;;;;;5108101;28;20078;-57
2022/08/19 04:19:14;;;;;;;3.05;1.35;;;;;;;;;;5109009;28;20066;-57
2022/08/19 04:21:40;;;;;;;2.17;1.23;;;;;;;;;;5109987;28;20044;-57
2022/08/19 04:24:06;;;;;;;2.55;1.40;;;;;;;;;;5109470;28;20097;-57
2022/08/19 04:26:32;;;;;;;4.68;1.63;;;;;;;;;;5109352;28;20031;-57
2022/08/19 04:28:59;;;;;;;1.85;1.52;;;;;;;;;;5108510;28;20043;-57
2022/08/19 04:31:28;;;;;;;2.85;1.33;;;;;;;;;;5108432;28;20040;-57
2022/08/19 04:33:54;;;;;;;10.70;2.13;;;;;;;;;;5109282;28;20059;-57
2022/08/19 04:36:24;;;;;;;3.80;0.95;;;;;;;;;;5109507;28;20035;-58
2022/08/19 04:38:52;;;;;;;1.80;0.73;;;;;;;;;;5110448;28;20062;-55
2022/08/19 04:44:02;;;;;;;3.22;1.27;;;;;;;;;;5109033;28;20078;-56
2022/08/19 04:46:30;;;;;;;1.90;1.42;;;;;;;;;;5109096;28;20083;-58
2022/08/19 04:48:56;;;;;;;8.25;2.10;;;;;;;;;;5108464;28;20104;-59
2022/08/19 04:51:22;;;;;;;7.40;1.33;;;;;;;;;;5109281;28;20039;-57
2022/08/19 04:53:47;;;;;;;8.52;2.90;;;;;;;;;;5109425;28;20051;-56
2022/08/19 04:56:14;;;;;;;17.50;1.40;;;;;;;;;;5108232;28;20036;-57
2022/08/19 04:58:42;;;;;;;6.72;1.75;;;;;;;;;;5109092;28;20035;-56
2022/08/19 05:01:08;;;;;;;25.27;23.27;;;;;;;;;;5108226;28;20040;-57
2022/08/19 05:03:34;;;;;;;12.13;8.38;;;;;;;;;;5109454;28;20048;-57
2022/08/19 05:06:07;;;;;;;6.10;2.58;;;;;;;;;;5108693;28;20050;-57
2022/08/19 05:08:33;;;;;;;3.20;1.15;;;;;;;;;;5109201;28;20035;-57
2022/08/19 05:10:59;;;;;;;6.20;1.90;;;;;;;;;;5109762;28;20082;-57
2022/08/19 05:13:26;;;;;;;9.70;5.20;;;;;;;;;;5109713;28;20712;-57
2022/08/19 05:15:55;;;;;;;4.55;1.95;;;;;;;;;;5108851;28;20040;-57
2022/08/19 05:23:50;;;;;;;4.72;4.22;;;;;;;;;;5107094;28;20529;-58
2022/08/19 05:26:15;;;;;;;3.53;2.22;;;;;;;;;;5108305;28;20036;-58
2022/08/19 05:28:41;;;;;;;4.20;2.22;;;;;;;;;;5106824;28;20047;-57
2022/08/19 05:31:06;;;;;;;39.50;29.45;;;;;;;;;;5109099;28;20584;-57
2022/08/19 05:33:31;;;;;;;2.35;2.08;;;;;;;;;;5107025;28;20062;-58
2022/08/19 05:35:57;;;;;;;6.72;1.58;;;;;;;;;;5108575;28;20100;-57
2022/08/19 05:38:22;;;;;;;2.05;1.13;;;;;;;;;;5107928;28;20164;-57
2022/08/19 05:40:49;;;;;;;4.30;2.08;;;;;;;;;;5108520;28;20044;-58
2022/08/19 05:43:17;;;;;;;3.78;1.60;;;;;;;;;;5108451;28;20067;-58
2022/08/19 05:45:43;;;;;;;4.47;1.67;;;;;;;;;;5108624;28;20089;-57
2022/08/19 05:48:12;;;;;;;3.50;1.48;;;;;;;;;;5107438;28;20072;-58
2022/08/19 05:50:38;;;;;;;3.75;2.90;;;;;;;;;;5107429;28;20126;-58
2022/08/19 05:53:04;;;;;;;8.55;2.95;;;;;;;;;;5108022;28;20150;-58
2022/08/19 05:55:29;;;;;;;3.47;1.50;;;;;;;;;;5107373;28;20035;-58
2022/08/19 05:57:55;;;;;;;3.88;2.38;;;;;;;;;;5108186;28;20047;-58
2022/08/19 06:00:20;;;;;;;14.93;2.47;;;;;;;;;;5107363;28;20570;-58
2022/08/19 06:02:45;;;;;;;16.42;9.73;;;;;;;;;;5108166;28;20467;-56
2022/08/19 06:05:11;;;;;;;6.03;1.67;;;;;;;;;;5107550;28;20518;-57
2022/08/19 06:07:37;;;;;;;2.47;1.73;;;;;;;;;;5107769;28;20059;-58
2022/08/19 06:10:05;;;;;;;2.72;1.42;;;;;;;;;;5106942;28;20082;-58
2022/08/19 06:12:34;;;;;;;5.22;2.70;;;;;;;;;;5106034;28;20085;-58
2022/08/19 06:14:59;;;;;;;7.97;1.40;;;;;;;;;;5105120;28;20043;-58
2022/08/19 06:17:25;;;;;;;6.28;2.63;;;;;;;;;;5107583;28;20143;-58
2022/08/19 06:19:51;;;;;;;6.78;1.55;;;;;;;;;;5106873;28;20084;-58
2022/08/19 06:22:16;;;;;;;5.45;2.13;;;;;;;;;;5108049;28;20159;-58
2022/08/19 06:24:42;;;;;;;6.93;2.80;;;;;;;;;;5106102;28;20051;-58
2022/08/19 06:27:07;;;;;;;13.85;5.60;;;;;;;;;;5106900;28;20047;-58
2022/08/19 06:29:33;;;;;;;15.95;13.98;;;;;;;;;;5105273;28;20041;-58
2022/08/19 06:31:59;;;;;;;33.65;22.05;;;;;;;;;;5104013;28;20426;-56
2022/08/19 06:34:27;;;;;;;54.72;27.02;;;;;;;;;;5105436;28;20101;-55
2022/08/19 06:36:53;;;;;;;48.60;32.10;;;;;;;;;;5104730;28;20327;-58
2022/08/19 06:39:24;;;;;;;31.67;18.27;;;;;;;;;;5106280;28;20686;-58
2022/08/19 06:41:49;;;;;;;;;;;;;;;;;;5106674;28;20049;-58
2022/08/19 06:44:14;;;;;;;20.65;16.40;;;;;;;;;;5105926;28;20393;-57
2022/08/19 06:46:40;;;;;;;33.78;18.80;;;;;;;;;;5107841;28;20071;-58
2022/08/19 06:49:06;;;;;;;21.88;17.27;;;;;;;;;;5107187;28;20062;-58
2022/08/19 06:51:34;;;;;;;24.10;19.92;;;;;;;;;;5107500;28;20620;-58
2022/08/19 06:53:59;;;;;;;26.05;20.40;;;;;;;;;;5103508;28;20402;-58
2022/08/19 06:56:33;;;;;;;22.80;19.80;;;;;;;;;;5106295;28;20632;-57
2022/08/19 06:58:59;;;;;;;26.67;20.08;;;;;;;;;;5106796;28;20112;-58
2022/08/19 07:01:25;;;;;;;35.65;28.27;;;;;;;;;;5107616;28;20050;-57
2022/08/19 07:03:50;;;;;;;32.65;28.73;;;;;;;;;;5107136;28;20411;-57
2022/08/19 07:06:17;;;;;;;45.97;25.10;;;;;;;;;;5106014;28;20439;-57
2022/08/19 07:08:43;;;;;;;32.97;17.58;;;;;;;;;;5106043;28;20151;-57
2022/08/19 07:11:09;;;;;;;9.77;8.55;;;;;;;;;;5105607;28;20549;-57
2022/08/19 07:13:36;;;;;;;6.75;4.43;;;;;;;;;;5106316;28;20066;-57
2022/08/19 07:16:06;;;;;;;9.80;4.28;;;;;;;;;;5106906;28;20123;-57
2022/08/19 07:18:32;;;;;;;18.63;5.38;;;;;;;;;;5106306;28;20171;-56
2022/08/19 07:21:08;;;;;;;11.02;9.95;;;;;;;;;;5106890;28;20799;-57
2022/08/19 07:23:33;;;;;;;9.00;7.30;;;;;;;;;;5106704;28;20495;-57
2022/08/19 07:26:03;;;;;;;9.23;6.43;;;;;;;;;;5105318;28;20052;-57
2022/08/19 07:28:29;;;;;;;9.52;7.90;;;;;;;;;;5106749;28;20043;-57
2022/08/19 07:30:54;;;;;;;9.82;5.85;;;;;;;;;;5106992;28;20468;-57
2022/08/19 07:33:20;;;;;;;19.05;13.90;;;;;;;;;;5105133;28;20512;-57
2022/08/19 07:35:45;;;;;;;17.48;12.48;;;;;;;;;;5107170;28;20138;-56
2022/08/19 07:38:11;;;;;;;25.58;18.63;;;;;;;;;;5106982;28;20067;-57
2022/08/19 07:40:36;;;;;;;103.05;79.95;;;;;;;;;;5105565;28;20058;-58
2022/08/19 07:43:01;;;;;;;68.13;49.40;;;;;;;;;;5104606;28;20059;-57
2022/08/19 07:45:28;;;;;;;61.90;49.55;;;;;;;;;;5104139;28;20051;-57
2022/08/19 07:47:53;;;;;;;75.95;54.63;;;;;;;;;;5106270;28;20032;-55
2022/08/19 07:50:20;;;;;;;92.63;57.67;;;;;;;;;;5105340;28;20109;-56
2022/08/19 07:52:46;;;;;;;82.32;73.93;;;;;;;;;;5106898;28;20047;-56
2022/08/19 07:55:12;;;;;;;90.85;75.80;;;;;;;;;;5107252;28;20039;-55
2022/08/19 07:57:38;;;;;;;73.05;58.08;;;;;;;;;;5106936;28;20036;-56
2022/08/19 08:00:04;;;;;;;42.35;35.92;;;;;;;;;;5107119;28;20035;-57
2022/08/19 08:02:29;;;;;;;50.10;40.20;;;;;;;;;;5101467;28;20101;-56
2022/08/19 08:10:24;;;;;;;8.18;3.97;;;;;;;;;;5102281;28;20097;-57
2022/08/19 08:12:50;;;;;;;14.80;5.18;;;;;;;;;;5104347;28;20043;-56
2022/08/19 08:15:16;;;;;;;2.72;1.75;;;;;;;;;;5106269;28;20065;-55
2022/08/19 08:17:42;;;;;;;2.75;1.77;;;;;;;;;;5103996;28;20035;-57
2022/08/19 08:20:07;;;;;;;3.97;1.65;;;;;;;;;;5109698;28;20036;-57
2022/08/19 08:25:19;;;;;;;5.68;3.83;;;;;;;;;;5110462;28;20050;-57
2022/08/19 08:27:45;;;;;;;8.20;3.55;;;;;;;;;;5109093;28;20044;-57
2022/08/19 08:30:13;;;;;;;20.35;4.43;;;;;;;;;;5108116;28;20098;-56
2022/08/19 08:32:39;;;;;;;7.55;3.67;;;;;;;;;;5108729;28;20039;-57
2022/08/19 08:35:05;;;;;;;11.35;2.95;;;;;;;;;;5107552;28;20430;-57
2022/08/19 08:37:31;;;;;;;2.42;1.13;;;;;;;;;;5106916;28;20128;-57
2022/08/19 08:39:56;;;;;;;1.15;0.85;;;;;;;;;;5107188;28;20059;-58
2022/08/19 08:42:27;;;;;;;5.75;1.55;;;;;;;;;;5108868;28;20052;-57
2022/08/19 08:44:52;;;;;;;3.88;2.13;;;;;;;;;;5108220;28;20113;-57
2022/08/19 08:47:19;;;;;;;7.82;2.63;;;;;;;;;;5108324;28;20059;-57
2022/08/19 08:49:48;;;;;;;2.60;2.13;;;;;;;;;;5109095;28;20126;-57
2022/08/19 08:52:19;;;;;;;7.25;1.20;;;;;;;;;;5109181;28;20055;-57
2022/08/19 08:54:46;;;;;;;3.17;1.52;;;;;;;;;;5109469;28;20051;-57
2022/08/19 08:57:13;;;;;;;7.78;1.42;;;;;;;;;;5108971;28;20482;-58
2022/08/19 08:59:40;;;;;;;0.77;0.60;;;;;;;;;;5108945;28;20031;-57
2022/08/19 09:02:06;;;;;;;4.88;2.13;;;;;;;;;;5105823;28;20063;-58
2022/08/19 09:04:33;;;;;;;3.38;2.30;;;;;;;;;;5089965;28;20045;-57
2022/08/19 09:06:59;;;;;;;13.40;0.75;;;;;;;;;;5108631;28;20070;-57
2022/08/19 09:09:24;;;;;;;3.90;0.70;;;;;;;;;;5109176;28;20498;-57
2022/08/19 09:11:55;;;;;;;8.25;2.33;;;;;;;;;;5107935;28;20074;-57
2022/08/19 09:14:33;;;;;;;12.43;2.17;;;;;;;;;;5108216;28;20046;-58
2022/08/19 09:16:58;;;;;;;6.55;3.15;;;;;;;;;;5108230;28;20122;-57
2022/08/19 09:19:23;;;;;;;20.92;5.22;;;;;;;;;;5107909;28;20584;-58
2022/08/19 09:21:50;;;;;;;2.78;1.05;;;;;;;;;;5108746;28;20047;-57
2022/08/19 09:24:15;;;;;;;18.58;4.05;;;;;;;;;;5105723;28;20130;-57
2022/08/19 09:26:43;;;;;;;8.82;1.40;;;;;;;;;;5107941;28;20477;-57
2022/08/19 09:29:09;;;;;;;1.75;1.00;;;;;;;;;;5106889;28;20475;-58
2022/08/19 09:31:35;;;;;;;6.90;1.88;;;;;;;;;;5108637;28;20044;-57
2022/08/19 09:34:04;;;;;;;19.13;4.47;;;;;;;;;;5108139;28;20498;-57
2022/08/19 09:36:32;;;;;;;2.50;0.60;;;;;;;;;;5106754;28;20495;-58
2022/08/19 09:38:58;;;;;;;1.40;0.80;;;;;;;;;;5107414;28;20108;-56
2022/08/19 09:41:24;;;;;;;2.67;1.65;;;;;;;;;;5108110;28;20772;-57
2022/08/19 09:43:55;;;;;;;3.75;1.15;;;;;;;;;;5107469;28;20047;-56
2022/08/19 09:46:21;;;;;;;2.00;1.10;;;;;;;;;;5107611;28;20184;-57
2022/08/19 09:48:48;;;;;;;1.20;0.70;;;;;;;;;;5108744;28;20138;-57
2022/08/19 09:51:15;;;;;;;9.07;1.50;;;;;;;;;;5108594;28;20047;-56
2022/08/19 09:53:41;;;;;;;4.78;0.50;;;;;;;;;;5106043;28;20123;-57
2022/08/19 09:56:06;;;;;;;0.55;0.30;;;;;;;;;;5106907;28;20134;-55
2022/08/19 09:58:32;;;;;;;1.65;0.52;;;;;;;;;;5108379;28;20051;-56
2022/08/19 10:00:59;;;;;;;5.55;1.02;;;;;;;;;;5108050;28;20047;-55
2022/08/19 10:03:25;;;;;;;1.27;0.75;;;;;;;;;;5108047;28;20294;-57
2022/08/19 10:05:50;;;;;;;1.35;0.68;;;;;;;;;;5105953;28;20475;-55
2022/08/19 10:08:17;;;;;;;1.52;0.57;;;;;;;;;;5108188;28;20403;-57
2022/08/19 10:10:45;;;;;;;0.57;0.47;;;;;;;;;;5106842;28;20048;-53
2022/08/19 10:13:11;;;;;;;0.85;0.40;;;;;;;;;;5107566;28;20062;-54
2022/08/19 10:15:39;;;;;;;4.07;1.40;;;;;;;;;;5106230;28;20044;-56
2022/08/19 10:18:06;;;;;;;0.10;0.10;;;;;;;;;;5106730;28;20113;-55
2022/08/19 10:20:32;;;;;;;1.73;0.80;;;;;;;;;;5105720;28;20102;-54
2022/08/19 10:22:59;;;;;;;7.70;0.50;;;;;;;;;;5107306;28;20320;-54
2022/08/19 10:25:25;;;;;;;4.28;0.60;;;;;;;;;;5107660;28;20070;-56
2022/08/19 10:27:51;;;;;;;3.90;1.40;;;;;;;;;;5105204;28;20150;-56
2022/08/19 10:30:16;;;;;;;23.52;21.20;;;;;;;;;;5106995;28;20115;-54
2022/08/19 10:32:41;;;;;;;2.17;1.70;;;;;;;;;;5105151;28;20499;-55
2022/08/19 10:35:08;;;;;;;4.82;0.55;;;;;;;;;;5106893;28;20083;-56
2022/08/19 10:37:34;;;;;;;5.72;0.70;;;;;;;;;;5106651;28;20069;-55
2022/08/19 10:39:59;;;;;;;1.75;0.55;;;;;;;;;;5105102;28;20155;-53
2022/08/19 10:42:24;;;;;;;1.83;0.98;;;;;;;;;;5106949;28;20463;-55
2022/08/19 10:44:50;;;;;;;2.10;1.15;;;;;;;;;;5106005;28;20457;-57
2022/08/19 10:47:15;;;;;;;2.20;1.05;;;;;;;;;;5087560;28;20077;-55
2022/08/19 10:52:33;;;;;;;0.63;0.40;;;;;;;;;;5105951;28;20051;-55
2022/08/19 10:57:43;;;;;;;2.00;0.57;;;;;;;;;;5105954;28;20552;-55
2022/08/19 11:00:09;;;;;;;5.50;0.95;;;;;;;;;;5107293;28;20490;-55
2022/08/19 11:02:34;;;;;;;1.42;0.82;;;;;;;;;;5107737;28;20047;-54
2022/08/19 11:05:00;;;;;;;2.75;0.65;;;;;;;;;;5107294;28;20042;-53
2022/08/19 11:07:26;;;;;;;1.95;1.23;;;;;;;;;;5085726;28;20507;-55
2022/08/19 11:09:51;;;;;;;3.28;0.80;;;;;;;;;;5106944;28;20055;-54
2022/08/19 11:12:17;;;;;;;10.10;2.33;;;;;;;;;;5105894;28;20047;-55
2022/08/19 11:14:42;;;;;;;1.75;0.75;;;;;;;;;;5105462;28;20588;-55
2022/08/19 11:17:08;;;;;;;5.40;1.20;;;;;;;;;;5106189;28;20032;-50
2022/08/19 11:19:34;;;;;;;0.80;0.40;;;;;;;;;;5103557;28;20429;-53
2022/08/19 11:22:01;;;;;;;0.65;0.40;;;;;;;;;;5105955;28;20058;-52
2022/08/19 11:24:27;;;;;;;2.08;0.45;;;;;;;;;;5105996;28;20079;-55
2022/08/19 11:26:57;;;;;;;5.97;0.30;;;;;;;;;;5106121;28;20055;-50
2022/08/19 11:29:25;;;;;;;1.35;0.60;;;;;;;;;;5103084;28;20050;-54
2022/08/19 11:31:51;;;;;;;1.65;0.38;;;;;;;;;;5105603;28;20123;-53
2022/08/19 11:34:19;;;;;;;1.27;0.40;;;;;;;;;;5106144;28;20177;-54
2022/08/19 11:36:45;;;;;;;0.40;0.22;;;;;;;;;;5106535;28;20747;-54
2022/08/19 11:39:12;;;;;;;4.50;0.63;;;;;;;;;;5106961;28;20456;-54
2022/08/19 11:41:37;;;;;;;0.82;0.43;;;;;;;;;;5106627;28;20044;-49
2022/08/19 11:44:04;;;;;;;1.98;1.02;;;;;;;;;;5106637;28;20089;-55
2022/08/19 11:46:30;;;;;;;3.58;0.95;;;;;;;;;;5104225;28;20397;-54
2022/08/19 11:48:56;;;;;;;1.77;0.60;;;;;;;;;;5106553;28;20490;-52
2022/08/19 11:51:24;;;;;;;3.78;1.10;;;;;;;;;;5107277;28;20047;-55
2022/08/19 11:53:50;;;;;;;3.28;0.40;;;;;;;;;;5106740;28;20040;-53
2022/08/19 11:56:16;;;;;;;0.77;0.50;;;;;;;;;;5110156;28;20074;-50
2022/08/19 11:58:44;;;;;;;0.95;0.50;;;;;;;;;;5110746;28;20103;-53
2022/08/19 12:01:11;;;;;;;0.70;0.28;;;;;;;;;;5108691;28;20047;-53
2022/08/19 12:03:36;;;;;;;5.35;0.80;;;;;;;;;;5109845;28;20047;-56
2022/08/19 12:06:09;;;;;;;1.45;0.50;;;;;;;;;;5110031;28;20745;-56
2022/08/19 12:08:35;;;;;;;1.52;0.65;;;;;;;;;;5108072;28;20050;-53
2022/08/19 12:11:03;;;;;;;0.52;0.25;;;;;;;;;;5110088;28;20043;-55
2022/08/19 12:13:30;;;;;;;0.90;0.55;;;;;;;;;;5109571;28;20460;-56
2022/08/19 12:15:55;;;;;;;3.30;0.50;;;;;;;;;;5110135;28;20140;-55
2022/08/19 12:18:21;;;;;;;0.82;0.45;;;;;;;;;;5109971;28;20704;-51
2022/08/19 12:20:47;;;;;;;3.30;1.10;;;;;;;;;;5108912;28;20513;-53
2022/08/19 12:23:13;;;;;;;1.88;0.73;;;;;;;;;;5109465;28;20119;-55
2022/08/19 12:25:48;;;;;;;4.55;0.73;;;;;;;;;;5110104;28;20563;-54
2022/08/19 12:28:13;;;;;;;5.05;1.98;;;;;;;;;;5109155;28;20398;-55
2022/08/19 12:30:38;;;;;;;2.50;1.33;;;;;;;;;;5108066;28;20043;-56
2022/08/19 12:33:04;;;;;;;2.50;0.90;;;;;;;;;;5108927;28;20035;-55
2022/08/19 12:35:30;;;;;;;3.35;2.30;;;;;;;;;;5108846;28;20052;-53
2022/08/19 12:37:55;;;;;;;9.98;4.25;;;;;;;;;;5110708;28;20111;-54
2022/08/19 12:40:21;;;;;;;2.97;0.82;;;;;;;;;;5109408;28;20044;-54
2022/08/19 12:42:46;;;;;;;0.82;0.40;;;;;;;;;;5108907;28;20051;-53
2022/08/19 12:45:13;;;;;;;1.50;0.68;;;;;;;;;;5107690;28;20426;-54
2022/08/19 12:47:38;;;;;;;2.20;0.70;;;;;;;;;;5107262;28;20048;-56
2022/08/19 12:50:08;;;;;;;1.10;0.40;;;;;;;;;;5108238;28;20063;-54
2022/08/19 12:52:36;;;;;;;0.50;0.20;;;;;;;;;;5108303;28;20084;-58
2022/08/19 12:55:01;;;;;;;0.65;0.35;;;;;;;;;;5109536;28;20055;-56
2022/08/19 12:57:27;;;;;;;9.55;1.42;;;;;;;;;;5104668;28;20066;-56
2022/08/19 12:59:54;;;;;;;1.85;1.20;;;;;;;;;;5109285;28;20047;-53
2022/08/19 13:02:19;;;;;;;2.38;0.93;;;;;;;;;;5108651;28;20113;-56
2022/08/19 13:04:45;;;;;;;1.48;0.85;;;;;;;;;;5108326;28;20498;-57
2022/08/19 13:07:10;;;;;;;1.52;0.77;;;;;;;;;;5107762;28;20387;-54
2022/08/19 13:09:36;;;;;;;0.95;0.60;;;;;;;;;;5108702;28;20047;-56
2022/08/19 13:12:03;;;;;;;4.22;0.63;;;;;;;;;;5109471;28;20070;-55
2022/08/19 13:14:30;;;;;;;2.45;0.50;;;;;;;;;;5109439;28;20052;-56
2022/08/19 13:16:57;;;;;;;2.78;0.65;;;;;;;;;;5108713;28;20040;-56
2022/08/19 13:19:23;;;;;;;0.75;0.40;;;;;;;;;;5107607;28;20573;-56
2022/08/19 13:21:53;;;;;;;9.45;1.05;;;;;;;;;;5108558;28;20127;-57
2022/08/19 13:24:19;;;;;;;2.08;0.80;;;;;;;;;;5109051;28;20053;-56
2022/08/19 13:26:44;;;;;;;1.70;0.82;;;;;;;;;;5109913;28;20198;-56
2022/08/19 13:34:37;;;;;;;2.35;0.65;;;;;;;;;;5105214;28;20147;-58
2022/08/19 13:37:03;;;;;;;1.50;0.63;;;;;;;;;;5107132;28;20122;-57
2022/08/19 13:39:29;;;;;;;0.35;0.25;;;;;;;;;;5108893;28;20093;-56
2022/08/19 13:41:55;;;;;;;0.68;0.57;;;;;;;;;;5109094;28;20412;-57
2022/08/19 13:44:20;;;;;;;0.80;0.30;;;;;;;;;;5108585;28;20059;-51
2022/08/19 13:46:46;;;;;;;0.93;0.68;;;;;;;;;;5108283;28;20043;-61
2022/08/19 13:49:12;;;;;;;4.60;1.65;;;;;;;;;;5107609;28;20086;-61
2022/08/19 13:51:39;;;;;;;2.70;1.10;;;;;;;;;;5107025;28;20067;-62
2022/08/19 13:54:06;;;;;;;3.22;0.90;;;;;;;;;;5106223;28;20126;-61
2022/08/19 13:56:32;;;;;;;5.35;1.02;;;;;;;;;;5108720;28;20051;-61
2022/08/19 13:58:57;;;;;;;3.70;0.28;;;;;;;;;;5107465;28;20044;-61
2022/08/19 14:01:23;;;;;;;1.13;0.50;;;;;;;;;;5108413;28;20042;-62
2022/08/19 14:03:49;;;;;;;2.05;0.63;;;;;;;;;;5107828;28;20078;-62
2022/08/19 14:06:14;;;;;;;1.85;0.75;;;;;;;;;;5104261;28;20515;-61
2022/08/19 14:08:41;;;;;;;3.40;0.70;;;;;;;;;;5107581;28;20077;-60
2022/08/19 14:11:07;;;;;;;4.45;0.40;;;;;;;;;;5108068;28;20051;-60
2022/08/19 14:13:33;;;;;;;1.98;0.75;;;;;;;;;;5107079;28;20048;-61
2022/08/19 14:15:58;;;;;;;6.25;0.90;;;;;;;;;;5104938;28;20043;-60
2022/08/19 14:18:24;;;;;;;1.38;0.30;;;;;;;;;;5107382;28;20028;-61
2022/08/19 14:20:50;;;;;;;2.13;0.40;;;;;;;;;;5106910;28;20360;-62
2022/08/19 14:23:15;;;;;;;1.02;0.40;;;;;;;;;;5106880;28;20044;-62
2022/08/19 14:25:41;;;;;;;4.68;2.33;;;;;;;;;;5105973;28;20144;-61
2022/08/19 14:28:07;;;;;;;3.28;1.05;;;;;;;;;;5105266;28;20097;-62
2022/08/19 14:30:34;;;;;;;1.38;0.90;;;;;;;;;;5106845;28;20039;-61
2022/08/19 14:33:00;;;;;;;1.05;0.38;;;;;;;;;;5108029;28;20443;-61
2022/08/19 14:35:26;;;;;;;1.52;0.68;;;;;;;;;;5106150;28;20079;-60
2022/08/19 14:37:55;;;;;;;2.70;1.30;;;;;;;;;;5105723;28;20118;-58
2022/08/19 14:40:25;;;;;;;0.77;0.30;;;;;;;;;;5105185;28;20146;-58
2022/08/19 14:42:50;;;;;;;1.75;0.50;;;;;;;;;;5106186;28;20173;-52
2022/08/19 14:45:16;;;;;;;1.65;0.70;;;;;;;;;;5106289;28;20478;-57
2022/08/19 14:47:41;;;;;;;2.80;1.63;;;;;;;;;;5106883;28;20070;-60
2022/08/19 14:50:08;;;;;;;9.25;5.32;;;;;;;;;;5107115;28;20545;-60
2022/08/19 14:52:33;;;;;;;4.18;1.92;;;;;;;;;;5106336;28;20099;-60
2022/08/19 14:54:58;;;;;;;2.20;0.88;;;;;;;;;;5106675;28;20395;-57
2022/08/19 14:57:24;;;;;;;2.40;0.50;;;;;;;;;;5088435;28;20410;-56
2022/08/19 14:59:49;;;;;;;1.02;0.68;;;;;;;;;;5104853;28;20498;-57
2022/08/19 15:02:15;;;;;;;2.97;0.73;;;;;;;;;;5106066;28;20631;-57